• Join FlightAware (Why Join?)
  • Login
  • US Flag 
04:06AM EDT


 

Airport Tracker/Info


-or-


 

Live Flight TrackerFlight Track Log ✈ USC3011 ✈ 07-May-2013 ✈ KDNL - KORL

Flight Track Log - Related Links

Times and Time Zones

All times are in EDT time to prevent confusion due to time zone crossing. See the USC3011 flight status page for this flight to view local times or setup timezone preferences in your user account.

Time Position Orientation Groundspeed Altitude Reporting Facility
EDT Latitude Longitude Course Direction KTS MPH feet Rate Location/Type
03:10AM 31.7297 -81.7958 173° South 166 191 6,100  Level Jacksonville Center
03:11AM 31.6858 -81.7889 172° South 171 197 6,100 -60 Level Jacksonville Center
03:12AM 31.6375 -81.7822 173° South 177 204 6,000 -60 Descending Jacksonville Center
03:13AM 31.5833 -81.7756 174° South 182 209 6,000  Level Jacksonville Center
03:14AM 31.5353 -81.7664 171° South 182 209 6,000  Level Jacksonville Center
03:15AM 33.2164 -82.0016 173° South  Level Estimated
03:15AM 31.4869 -81.7572 171° South 182 209 6,000  Level Jacksonville Center
03:16AM 31.4431 -81.7531 175° South 176 203 6,000  Level Jacksonville Center
03:18AM 31.3694 -81.7414 172° South  Level FlightAware Approximate
03:20AM 31.2047 -81.7169 172° South 181 208 6,000  Level Jacksonville Center
03:21AM 31.1986 -81.7169 180° South 181 208 6,000  Level Jacksonville Center
03:22AM 31.1442 -81.7106 174° South 184 212 6,000  Level Jacksonville Center
03:23AM 31.0919 -81.7039 174° South 184 212 6,000  Level Jacksonville Center
03:24AM 31.0439 -81.6922 168° South 185 213 6,000  Level Jacksonville Center
03:25AM 31.0778 -81.6955 172° South  Level FlightAware Approximate
03:25AM 30.9875 -81.6858 174° South 189 217 6,000  Level Jacksonville Center
03:26AM 31.0361 -81.6890 172° South  Level FlightAware Approximate
03:26AM 30.9350 -81.6792 174° South 185 213 6,000  Level Jacksonville Center
03:27AM 30.8850 -81.6725 173° South 187 215 6,000  Level Jacksonville Center
03:28AM 30.8328 -81.6658 174° South 186 214 6,000  Level Jacksonville Center
03:29AM 30.7825 -81.6569 171° South 186 214 6,000  Level Jacksonville Center
03:30AM 30.7303 -81.6481 172° South 185 213 6,000  Level Jacksonville Center
03:30AM 30.7197 -81.6481 180° South 186 214 6,000  Level Jacksonville Center
03:31AM 30.6781 -81.6414 172° South 185 213 6,000  Level Jacksonville Center
03:32AM 30.6278 -81.6325 171° South 187 215 6,000  Level Jacksonville Center
03:33AM 30.5756 -81.6258 174° South 186 214 6,000  Level Jacksonville Center
03:34AM 30.5233 -81.6192 174° South 187 215 6,000  Level Jacksonville Center
03:35AM 30.4689 -81.6081 170° South 192 221 6,000  Level Jacksonville Center
03:36AM 30.4144 -81.6014 174° South 190 219 6,000  Level Jacksonville Center
03:37AM 30.3644 -81.5950 174° South 188 216 6,000  Level Jacksonville Center
03:38AM 30.3119 -81.5883 174° South 188 216 6,000  Level Jacksonville Center
03:39AM 30.2536 -81.5772 171° South 189 217 6,000  Level Jacksonville Center
03:40AM 30.1992 -81.5731 176° South 191 220 6,000  Level Jacksonville Center
03:41AM 30.1447 -81.5642 172° South 191 220 6,000  Level Jacksonville Center
03:42AM 30.0925 -81.5553 172° South 194 223 6,000  Level Jacksonville Center
03:43AM 30.0381 -81.5467 172° South 188 216 6,000  Level Jacksonville Center
03:44AM 29.9858 -81.5400 174° South 191 220 6,000 60 Level Jacksonville Center
03:44AM 29.9586 -81.5381 176° South 194 223 6,100 60 Climbing Jacksonville Center
03:46AM 29.9000 -81.5292 173° South 196 226 6,100  Level Jacksonville Center
03:47AM 29.8478 -81.5206 172° South 194 223 6,100  Level Jacksonville Center
03:48AM 29.7936 -81.5142 174° South 192 221 6,100  Level Jacksonville Center
03:49AM 29.7350 -81.5078 175° South 195 224 6,100  Level Jacksonville Center
03:50AM 29.6764 -81.4967 171° South 197 227 6,100  Level Jacksonville Center
03:51AM 29.6219 -81.4903 174° South 194 223 6,100 -240 Level Jacksonville Center
03:52AM 29.5697 -81.4814 172° South 195 224 5,700 -540 Descending Jacksonville Center
03:53AM 29.5133 -81.4750 174° South 208 239 5,100 -600 Descending Jacksonville Center
03:54AM 29.4547 -81.4664 173° South 211 243 4,500 -600 Descending Jacksonville Center
03:55AM 29.3961 -81.4553 171° South 210 242 4,000 -240 Descending Jacksonville Center
03:56AM 29.3000 -81.4333 169° South 190 219 4,000  Level Orlando TRACON
03:57AM 29.2500 -81.4333 180° South 191 220 4,000  Level Orlando TRACON
03:58AM 29.2000 -81.4333 180° South 193 222 4,100  Climbing Orlando TRACON
03:59AM 29.1500 -81.4167 164° South 191 220 4,000 -60 Descending Orlando TRACON
04:00AM 29.1000 -81.4167 180° South 191 220 4,000  Level Orlando TRACON
04:01AM 29.0500 -81.4000 164° South 190 219 4,100  Climbing Orlando TRACON
04:02AM 28.9833 -81.4000 180° South 187 215 4,000  Descending Orlando TRACON
04:03AM 28.9333 -81.3833 164° South 187 215 4,100 -180 Climbing Orlando TRACON
04:04AM 28.8833 -81.3833 180° South 193 222 3,700 -540 Descending Orlando TRACON
04:05AM 28.8333 -81.3667 164° South 201 231 3,100 -600 Descending Orlando TRACON
04:06AM 28.7833 -81.3667 180° South 200 230 2,500 -600 Descending Orlando TRACON
04:07AM 28.7167 -81.3500 168° South 190 219 2,000 -480 Descending Orlando TRACON
04:08AM 28.6667 -81.3500 170° South 181 208 1,600 -420 Descending Orlando TRACON
04:08AM 28.6667 -81.3500 180° South 181 208 1,600 -300 Level Orlando TRACON
04:09AM 28.6167 -81.3500 180° South 171 197 1,300 -240 Descending Orlando TRACON
04:10AM 28.5833 -81.3500 180° South 153 176 1,200 -300 Descending Orlando TRACON
04:11AM 28.5500 -81.3500 180° South 124 143 700 -540 Descending Orlando TRACON
04:13AM 28.5455 -81.3329 170° South  Level Estimated
04:16AM 28.5455 -81.3329 170° South  Level Estimated
04:20AM 28.5455 -81.3329 170° South  Level Estimated
04:23AM 28.5455 -81.3329 170° South  Level Estimated